Time,TemperatureF,DewpointF,PressureIn,WindDirection,WindDirectionDegrees,WindSpeedMPH,WindSpeedGustMPH,Humidity,HourlyPrecipIn,Conditions,Clouds,dailyrainin,SoftwareType,DateUTC
2013-10-13 00:12:00,47.0,33.0,29.82,NNW,345,7.0,-999.0,58,-99.99,,,-99.99,,2013-10-13 06:12:00,
2013-10-13 00:21:00,48.0,33.0,29.80,NNW,339,5.0,-999.0,56,-99.99,,,-99.99,,2013-10-13 06:21:00,
2013-10-13 00:42:00,46.0,33.0,29.82,NNW,333,4.0,-999.0,61,-99.99,,,-99.99,,2013-10-13 06:42:00,
2013-10-13 00:52:00,47.0,34.0,29.81,NNW,333,4.0,-999.0,60,-99.99,,,-99.99,,2013-10-13 06:52:00,
2013-10-13 01:11:00,47.0,34.0,29.81,NNW,333,0.0,-999.0,60,-99.99,,,-99.99,,2013-10-13 07:11:00,
2013-10-13 01:21:00,46.0,33.0,29.81,NNW,333,0.0,-999.0,60,-99.99,,,-99.99,,2013-10-13 07:21:00,
2013-10-13 01:52:00,44.0,33.0,29.82,NNW,327,3.0,-999.0,65,-99.99,,,-99.99,,2013-10-13 07:52:00,
2013-10-13 02:12:00,44.0,34.0,29.83,NNW,342,1.0,-999.0,67,-99.99,,,-99.99,,2013-10-13 08:12:00,
2013-10-13 02:22:00,45.0,34.0,29.82,North,357,6.0,-999.0,64,-99.99,,,-99.99,,2013-10-13 08:22:00,
2013-10-13 02:42:00,43.0,33.0,29.83,North,357,0.0,-999.0,67,-99.99,,,-99.99,,2013-10-13 08:42:00,
2013-10-13 02:52:00,43.0,33.0,29.83,North,357,3.0,-999.0,68,-99.99,,,-99.99,,2013-10-13 08:52:00,
2013-10-13 03:11:00,43.0,33.0,29.82,North,357,5.0,-999.0,68,-99.99,,,-99.99,,2013-10-13 09:11:00,
2013-10-13 03:22:00,43.0,33.0,29.82,North,357,5.0,-999.0,68,-99.99,,,-99.99,,2013-10-13 09:22:00,
2013-10-13 03:43:00,43.0,33.0,29.82,North,359,4.0,-999.0,68,-99.99,,,-99.99,,2013-10-13 09:43:00,
2013-10-13 03:53:00,43.0,33.0,29.80,North,353,4.0,-999.0,68,-99.99,,,-99.99,,2013-10-13 09:53:00,
2013-10-13 04:13:00,43.0,34.0,29.80,North,357,5.0,-999.0,69,-99.99,,,-99.99,,2013-10-13 10:13:00,
2013-10-13 04:23:00,43.0,34.0,29.80,North,357,5.0,-999.0,69,-99.99,,,-99.99,,2013-10-13 10:23:00,
2013-10-13 04:43:00,44.0,34.0,29.80,North,357,4.0,-999.0,68,-99.99,,,-99.99,,2013-10-13 10:43:00,
2013-10-13 04:52:00,43.0,34.0,29.81,NNW,347,3.0,-999.0,70,-99.99,,,-99.99,,2013-10-13 10:52:00,
2013-10-13 05:03:00,43.0,34.0,29.81,NNW,347,3.0,-999.0,70,-99.99,,,-99.99,,2013-10-13 11:03:00,
2013-10-13 05:12:00,43.0,34.0,29.81,NNW,347,3.0,-999.0,70,-99.99,,,-99.99,,2013-10-13 11:12:00,
2013-10-13 05:21:00,43.0,34.0,29.82,NNW,347,3.0,-999.0,70,-99.99,,,-99.99,,2013-10-13 11:21:00,
2013-10-13 05:52:00,42.0,34.0,29.82,North,7,2.0,-999.0,72,-99.99,,,-99.99,,2013-10-13 11:52:00,
2013-10-13 06:12:00,43.0,35.0,29.83,North,357,5.0,-999.0,72,-99.99,,,-99.99,,2013-10-13 12:12:00,
2013-10-13 06:21:00,42.0,34.0,29.83,North,357,2.0,-999.0,73,-99.99,,,-99.99,,2013-10-13 12:21:00,
2013-10-13 06:42:00,43.0,35.0,29.84,North,357,1.0,-999.0,73,-99.99,,,-99.99,,2013-10-13 12:42:00,
2013-10-13 06:52:00,41.0,33.0,29.84,North,357,0.0,-999.0,74,-99.99,,,-99.99,,2013-10-13 12:52:00,
2013-10-13 07:12:00,41.0,34.0,29.89,North,357,0.0,-999.0,76,-99.99,,,-99.99,,2013-10-13 13:12:00,
2013-10-13 07:21:00,41.0,34.0,29.90,North,357,0.0,-999.0,77,-99.99,,,-99.99,,2013-10-13 13:21:00,
2013-10-13 07:42:00,41.0,34.0,29.90,North,357,2.0,-999.0,76,-99.99,,,-99.99,,2013-10-13 13:42:00,
2013-10-13 07:52:00,41.0,34.0,29.90,North,357,3.0,-999.0,77,-99.99,,,-99.99,,2013-10-13 13:52:00,
2013-10-13 08:11:00,41.0,35.0,29.91,North,357,2.0,-999.0,78,-99.99,,,-99.99,,2013-10-13 14:11:00,
2013-10-13 08:21:00,43.0,36.0,29.91,North,357,1.0,-999.0,76,-99.99,,,-99.99,,2013-10-13 14:21:00,
2013-10-13 08:42:00,44.0,36.0,29.90,North,1,1.0,-999.0,72,-99.99,,,-99.99,,2013-10-13 14:42:00,
2013-10-13 08:52:00,46.0,36.0,29.88,North,9,1.0,-999.0,68,-99.99,,,-99.99,,2013-10-13 14:52:00,
2013-10-13 09:12:00,47.0,37.0,29.90,North,9,0.0,-999.0,68,-99.99,,,-99.99,,2013-10-13 15:12:00,
2013-10-13 09:22:00,51.0,39.0,29.89,North,9,1.0,-999.0,63,-99.99,,,-99.99,,2013-10-13 15:22:00,
2013-10-13 09:43:00,56.0,37.0,29.87,North,9,0.0,-999.0,48,-99.99,,,-99.99,,2013-10-13 15:43:00,
2013-10-13 10:12:00,59.0,37.0,29.83,East,81,0.0,-999.0,43,-99.99,,,-99.99,,2013-10-13 16:12:00,
2013-10-13 10:23:00,59.0,36.0,29.83,ENE,78,4.0,-999.0,42,-99.99,,,-99.99,,2013-10-13 16:23:00,
2013-10-13 10:42:00,60.0,37.0,29.83,ESE,105,1.0,-999.0,43,-99.99,,,-99.99,,2013-10-13 16:42:00,
2013-10-13 10:54:00,59.0,35.0,29.83,NNE,13,1.0,-999.0,41,-99.99,,,-99.99,,2013-10-13 16:54:00,
2013-10-13 11:12:00,60.0,37.0,29.83,East,83,0.0,-999.0,43,-99.99,,,-99.99,,2013-10-13 17:12:00,
2013-10-13 11:22:00,60.0,37.0,29.82,East,98,3.0,-999.0,42,-99.99,,,-99.99,,2013-10-13 17:22:00,
2013-10-13 11:52:00,62.0,37.0,29.79,NNW,332,1.0,-999.0,40,-99.99,,,-99.99,,2013-10-13 17:52:00,
2013-10-13 12:12:00,64.0,36.0,29.78,SSE,147,4.0,-999.0,35,-99.99,,,-99.99,,2013-10-13 18:12:00,
2013-10-13 12:22:00,65.0,37.0,29.76,ESE,108,5.0,-999.0,35,-99.99,,,-99.99,,2013-10-13 18:22:00,
2013-10-13 12:42:00,67.0,38.0,29.75,SE,129,3.0,-999.0,35,-99.99,,,-99.99,,2013-10-13 18:42:00,
2013-10-13 12:52:00,67.0,36.0,29.73,SW,227,5.0,-999.0,32,-99.99,,,-99.99,,2013-10-13 18:52:00,
2013-10-13 13:11:00,67.0,38.0,29.73,SSW,210,2.0,-999.0,34,-99.99,,,-99.99,,2013-10-13 19:11:00,
2013-10-13 13:21:00,67.0,36.0,29.71,SSW,195,6.0,-999.0,32,-99.99,,,-99.99,,2013-10-13 19:21:00,
2013-10-13 13:42:00,67.0,38.0,29.71,ESE,109,2.0,-999.0,35,-99.99,,,-99.99,,2013-10-13 19:42:00,
2013-10-13 13:52:00,68.0,36.0,29.69,South,179,2.0,-999.0,31,-99.99,,,-99.99,,2013-10-13 19:52:00,
2013-10-13 14:12:00,68.0,36.0,29.69,SSW,202,4.0,-999.0,31,-99.99,,,-99.99,,2013-10-13 20:12:00,
2013-10-13 14:22:00,70.0,35.0,29.66,SSW,195,6.0,-999.0,28,-99.99,,,-99.99,,2013-10-13 20:22:00,
2013-10-13 14:43:00,67.0,35.0,29.68,SSW,203,4.0,-999.0,31,-99.99,,,-99.99,,2013-10-13 20:43:00,
2013-10-13 14:52:00,68.0,36.0,29.67,South,181,2.0,-999.0,31,-99.99,,,-99.99,,2013-10-13 20:52:00,
2013-10-13 15:11:00,70.0,34.0,29.64,South,175,9.0,-999.0,27,-99.99,,,-99.99,,2013-10-13 21:11:00,
2013-10-13 15:21:00,69.0,35.0,29.63,SE,141,3.0,-999.0,28,-99.99,,,-99.99,,2013-10-13 21:21:00,
2013-10-13 15:44:00,70.0,34.0,29.62,South,185,3.0,-999.0,27,-99.99,,,-99.99,,2013-10-13 21:44:00,
2013-10-13 15:55:00,69.0,34.0,29.61,SSE,157,7.0,-999.0,27,-99.99,,,-99.99,,2013-10-13 21:55:00,
2013-10-13 16:13:00,72.0,34.0,29.61,South,181,7.0,-999.0,25,-99.99,,,-99.99,,2013-10-13 22:13:00,
2013-10-13 16:24:00,72.0,33.0,29.59,SSW,195,8.0,-999.0,24,-99.99,,,-99.99,,2013-10-13 22:24:00,
2013-10-13 16:43:00,73.0,32.0,29.58,SSW,193,8.0,-999.0,22,-99.99,,,-99.99,,2013-10-13 22:43:00,
2013-10-13 16:53:00,70.0,32.0,29.59,SSW,198,5.0,-999.0,24,-99.99,,,-99.99,,2013-10-13 22:53:00,
2013-10-13 17:12:00,70.0,30.0,29.58,SW,215,8.0,-999.0,23,-99.99,,,-99.99,,2013-10-13 23:12:00,
2013-10-13 17:21:00,69.0,29.0,29.59,SE,146,10.0,-999.0,22,-99.99,,,-99.99,,2013-10-13 23:21:00,
2013-10-13 17:42:00,71.0,30.0,29.58,SSW,192,8.0,-999.0,22,-99.99,,,-99.99,,2013-10-13 23:42:00,
2013-10-13 17:52:00,69.0,31.0,29.59,SSW,211,5.0,-999.0,24,-99.99,,,-99.99,,2013-10-13 23:52:00,
2013-10-13 18:12:00,68.0,32.0,29.60,SSW,201,4.0,-999.0,26,-99.99,,,-99.99,,2013-10-14 00:12:00,
2013-10-13 18:21:00,68.0,33.0,29.60,West,264,6.0,-999.0,27,-99.99,,,-99.99,,2013-10-14 00:21:00,
2013-10-13 18:42:00,67.0,33.0,29.61,West,271,5.0,-999.0,28,-99.99,,,-99.99,,2013-10-14 00:42:00,
2013-10-13 18:52:00,66.0,33.0,29.62,West,260,1.0,-999.0,29,-99.99,,,-99.99,,2013-10-14 00:52:00,
2013-10-13 19:11:00,65.0,32.0,29.62,SW,233,3.0,-999.0,29,-99.99,,,-99.99,,2013-10-14 01:11:00,
2013-10-13 19:21:00,64.0,29.0,29.65,SW,235,4.0,-999.0,27,-99.99,,,-99.99,,2013-10-14 01:21:00,
2013-10-13 19:42:00,63.0,29.0,29.65,WSW,237,3.0,-999.0,27,-99.99,,,-99.99,,2013-10-14 01:42:00,
2013-10-13 19:52:00,62.0,29.0,29.67,SW,222,3.0,-999.0,28,-99.99,,,-99.99,,2013-10-14 01:52:00,
2013-10-13 20:11:00,62.0,28.0,29.65,SSW,212,5.0,-999.0,27,-99.99,,,-99.99,,2013-10-14 02:11:00,
2013-10-13 20:21:00,60.0,29.0,29.65,SW,215,1.0,-999.0,31,-99.99,,,-99.99,,2013-10-14 02:21:00,
2013-10-13 20:42:00,61.0,28.0,29.66,SW,226,6.0,-999.0,28,-99.99,,,-99.99,,2013-10-14 02:42:00,
2013-10-13 20:52:00,60.0,29.0,29.66,SW,214,4.0,-999.0,31,-99.99,,,-99.99,,2013-10-14 02:52:00,
2013-10-13 21:12:00,61.0,29.0,29.61,SW,228,7.0,-999.0,29,-99.99,,,-99.99,,2013-10-14 03:12:00,
2013-10-13 21:22:00,61.0,29.0,29.61,SSW,200,5.0,-999.0,30,-99.99,,,-99.99,,2013-10-14 03:22:00,
2013-10-13 21:44:00,58.0,30.0,29.61,SSW,205,2.0,-999.0,34,-99.99,,,-99.99,,2013-10-14 03:44:00,
2013-10-13 21:55:00,58.0,29.0,29.62,SSW,196,4.0,-999.0,33,-99.99,,,-99.99,,2013-10-14 03:55:00,
2013-10-13 22:14:00,56.0,29.0,29.61,SSW,203,1.0,-999.0,35,-99.99,,,-99.99,,2013-10-14 04:14:00,
2013-10-13 22:24:00,56.0,29.0,29.63,SW,217,2.0,-999.0,36,-99.99,,,-99.99,,2013-10-14 04:24:00,
2013-10-13 22:43:00,55.0,30.0,29.64,SW,217,0.0,-999.0,38,-99.99,,,-99.99,,2013-10-14 04:43:00,
2013-10-13 22:54:00,54.0,30.0,29.65,WSW,245,2.0,-999.0,39,-99.99,,,-99.99,,2013-10-14 04:54:00,
2013-10-13 23:12:00,53.0,29.0,29.63,WSW,245,0.0,-999.0,40,-99.99,,,-99.99,,2013-10-14 05:12:00,
2013-10-13 23:22:00,52.0,28.0,29.66,WSW,245,0.0,-999.0,40,-99.99,,,-99.99,,2013-10-14 05:22:00,
2013-10-13 23:43:00,51.0,29.0,29.66,WSW,245,0.0,-999.0,43,-99.99,,,-99.99,,2013-10-14 05:43:00,
2013-10-13 23:52:00,49.0,31.0,29.68,WSW,252,2.0,-999.0,49,-99.99,,,-99.99,,2013-10-14 05:52:00,